createdAt,value
2019-01-30T00:01:20.508Z,6.90
2019-01-30T00:03:49.976Z,11.27
2019-01-30T00:06:19.378Z,9.40
2019-01-30T00:08:48.713Z,7.43
2019-01-30T00:11:18.021Z,11.27
2019-01-30T00:13:47.404Z,7.00
2019-01-30T00:16:19.904Z,10.43
2019-01-30T00:18:50.369Z,6.10
2019-01-30T00:21:22.724Z,12.20
2019-01-30T00:23:52.063Z,7.43
2019-01-30T00:26:21.365Z,11.13
2019-01-30T00:28:50.913Z,7.40
2019-01-30T00:31:20.622Z,5.77
2019-01-30T00:33:49.858Z,6.53
2019-01-30T00:36:19.240Z,5.17
2019-01-30T00:38:48.574Z,4.93
2019-01-30T00:41:17.862Z,7.47
2019-01-30T00:43:47.180Z,8.33
2019-01-30T00:46:17.060Z,12.30
2019-01-30T00:48:46.840Z,8.60
2019-01-30T00:51:17.631Z,4.53
2019-01-30T00:53:47.016Z,12.03
2019-01-30T00:56:16.408Z,5.13
2019-01-30T00:58:45.691Z,8.60
2019-01-30T01:01:15.013Z,6.87
2019-01-30T01:03:44.684Z,8.00
2019-01-30T01:06:15.391Z,9.47
2019-01-30T01:08:44.707Z,7.33
2019-01-30T01:11:14.034Z,9.07
2019-01-30T01:13:44.130Z,4.70
2019-01-30T01:16:13.414Z,6.57
2019-01-30T01:18:42.718Z,8.43
2019-01-30T01:21:12.069Z,10.43
2019-01-30T01:23:41.385Z,12.83
2019-01-30T01:26:10.624Z,6.70
2019-01-30T01:28:40.339Z,17.73
2019-01-30T01:31:09.555Z,9.20
2019-01-30T01:33:38.902Z,4.70
2019-01-30T01:36:08.219Z,6.83
2019-01-30T01:38:37.523Z,9.87
2019-01-30T01:41:06.805Z,8.57
2019-01-30T01:43:36.127Z,12.03
2019-01-30T01:46:05.676Z,8.37
2019-01-30T01:48:35.040Z,6.67
2019-01-30T01:51:04.361Z,9.20
2019-01-30T01:53:33.687Z,8.83
2019-01-30T01:56:03.089Z,5.57
2019-01-30T01:58:32.450Z,7.90
2019-01-30T02:01:01.742Z,6.90
2019-01-30T02:03:31.063Z,10.23
2019-01-30T02:06:00.377Z,7.60
2019-01-30T02:08:29.717Z,8.50
2019-01-30T02:10:59.067Z,9.60
2019-01-30T02:13:28.406Z,11.33
2019-01-30T02:15:57.632Z,16.43
2019-01-30T02:18:26.955Z,10.00
2019-01-30T02:20:56.252Z,8.97
2019-01-30T02:23:25.549Z,12.43
2019-01-30T02:25:54.839Z,15.43
2019-01-30T02:28:24.123Z,10.57
2019-01-30T02:30:53.610Z,8.43
2019-01-30T02:33:22.973Z,9.63
2019-01-30T02:35:53.492Z,11.50
2019-01-30T02:38:22.759Z,13.20
2019-01-30T02:40:53.024Z,12.73
2019-01-30T02:43:22.452Z,10.40
2019-01-30T02:45:51.821Z,16.07
2019-01-30T02:48:21.152Z,14.43
2019-01-30T02:50:50.465Z,16.60
2019-01-30T02:53:19.791Z,23.83
2019-01-30T02:55:49.111Z,16.57
2019-01-30T02:58:18.419Z,13.10
2019-01-30T03:00:58.577Z,17.10
2019-01-30T03:03:18.767Z,19.00
2019-01-30T03:05:48.117Z,16.87
2019-01-30T03:08:17.736Z,20.23
2019-01-30T03:10:47.123Z,19.20
2019-01-30T03:13:16.407Z,16.17
2019-01-30T03:15:45.679Z,24.70
2019-01-30T03:18:15.020Z,17.40
2019-01-30T03:20:44.326Z,18.33
2019-01-30T03:23:13.658Z,17.30
2019-01-30T03:25:43.004Z,19.37
2019-01-30T03:28:12.726Z,23.50
2019-01-30T03:30:42.064Z,21.60
2019-01-30T03:33:11.449Z,26.87
2019-01-30T03:35:40.855Z,25.17
2019-01-30T03:38:10.153Z,29.73
2019-01-30T03:40:39.437Z,23.00
2019-01-30T03:43:08.645Z,19.40
2019-01-30T03:45:38.052Z,22.03
2019-01-30T03:48:07.449Z,20.37
2019-01-30T03:50:36.819Z,34.83
2019-01-30T03:53:06.160Z,20.50
2019-01-30T03:55:35.461Z,24.13
2019-01-30T03:58:04.812Z,22.83
2019-01-30T04:00:34.169Z,23.57
2019-01-30T04:03:04.919Z,25.50
2019-01-30T04:05:34.211Z,22.27
2019-01-30T04:08:03.546Z,23.57
2019-01-30T04:10:32.784Z,24.80
2019-01-30T04:13:02.162Z,20.50
2019-01-30T04:15:31.513Z,21.53
2019-01-30T04:18:00.938Z,25.30
2019-01-30T04:20:30.250Z,25.40
2019-01-30T04:22:59.649Z,18.43
2019-01-30T04:25:29.012Z,22.13
2019-01-30T04:27:58.288Z,23.20
2019-01-30T04:30:27.595Z,30.33
2019-01-30T04:32:56.873Z,23.57
2019-01-30T04:35:26.232Z,25.77
2019-01-30T04:37:55.600Z,21.83
2019-01-30T04:40:24.898Z,25.30
2019-01-30T04:42:54.224Z,23.40
2019-01-30T04:45:24.972Z,26.03
2019-01-30T04:47:54.308Z,20.37
2019-01-30T04:50:23.645Z,23.77
2019-01-30T04:52:53.088Z,19.57
2019-01-30T04:55:22.416Z,17.33
2019-01-30T04:57:51.829Z,19.00
2019-01-30T05:00:23.531Z,19.00
2019-01-30T05:02:52.920Z,19.37
2019-01-30T05:05:22.255Z,22.27
2019-01-30T05:07:51.509Z,22.03
2019-01-30T05:10:21.218Z,20.67
2019-01-30T05:12:50.981Z,26.67
2019-01-30T05:15:20.755Z,20.90
2019-01-30T05:17:50.065Z,23.60
2019-01-30T05:20:19.807Z,21.20
2019-01-30T05:22:49.320Z,22.00
2019-01-30T05:25:18.602Z,22.20
2019-01-30T05:27:47.960Z,27.63
2019-01-30T05:30:20.979Z,23.90
2019-01-30T05:32:50.284Z,22.80
2019-01-30T05:35:19.633Z,26.13
2019-01-30T05:37:51.283Z,30.13
2019-01-30T05:40:19.969Z,23.17
2019-01-30T05:42:49.279Z,29.20
2019-01-30T05:45:19.723Z,22.80
2019-01-30T05:47:49.117Z,25.13
2019-01-30T05:50:18.468Z,21.60
2019-01-30T05:52:47.815Z,18.93
2019-01-30T05:55:17.212Z,23.17
2019-01-30T05:57:46.595Z,22.97
2019-01-30T06:00:19.561Z,21.30
2019-01-30T06:02:50.434Z,19.83
2019-01-30T06:05:19.800Z,26.70
2019-01-30T06:07:49.582Z,26.77
2019-01-30T06:10:18.982Z,23.87
2019-01-30T06:12:48.346Z,26.07
2019-01-30T06:15:17.944Z,32.23
2019-01-30T06:17:47.273Z,23.97
2019-01-30T06:20:19.297Z,27.90
2019-01-30T06:22:48.786Z,25.87
2019-01-30T06:25:18.141Z,26.40
2019-01-30T06:27:47.700Z,25.30
2019-01-30T06:30:18.332Z,28.27
2019-01-30T06:32:47.642Z,28.90
2019-01-30T06:35:17.135Z,24.70
2019-01-30T06:37:46.423Z,30.13
2019-01-30T06:40:18.604Z,24.03
2019-01-30T06:42:47.925Z,24.50
2019-01-30T06:45:17.236Z,23.10
2019-01-30T06:47:46.537Z,32.13
2019-01-30T06:50:15.921Z,26.27
2019-01-30T06:52:45.212Z,21.80
2019-01-30T06:55:14.597Z,25.80
2019-01-30T06:57:43.907Z,30.20
2019-01-30T07:00:18.229Z,31.23
2019-01-30T07:02:47.539Z,21.60
2019-01-30T07:05:17.289Z,21.67
2019-01-30T07:07:46.582Z,25.33
2019-01-30T07:10:18.203Z,23.40
2019-01-30T07:12:47.486Z,23.57
2019-01-30T07:15:17.036Z,30.47
2019-01-30T07:17:46.425Z,26.30
2019-01-30T07:20:15.900Z,24.07
2019-01-30T07:22:45.524Z,24.00
2019-01-30T07:25:16.210Z,30.17
2019-01-30T07:27:45.501Z,25.90
2019-01-30T07:30:21.753Z,22.00
2019-01-30T07:32:51.021Z,23.90
2019-01-30T07:35:20.440Z,23.83
2019-01-30T07:37:49.755Z,22.17
2019-01-30T07:40:19.168Z,23.83
2019-01-30T07:42:48.840Z,31.00
2019-01-30T07:45:19.640Z,29.20
2019-01-30T07:47:49.412Z,22.50
2019-01-30T07:50:18.927Z,25.60
2019-01-30T07:52:48.424Z,29.63
2019-01-30T07:55:17.942Z,25.80
2019-01-30T07:57:47.233Z,27.57
2019-01-30T08:00:35.675Z,20.20
2019-01-30T08:03:05.471Z,25.00
2019-01-30T08:05:34.834Z,26.70
2019-01-30T08:08:04.642Z,23.40
2019-01-30T08:10:35.529Z,24.97
2019-01-30T08:13:05.295Z,26.00
2019-01-30T08:15:34.810Z,22.83
2019-01-30T08:18:05.335Z,27.57
2019-01-30T08:20:34.983Z,25.60
2019-01-30T08:23:04.472Z,24.83
2019-01-30T08:25:34.106Z,29.47
2019-01-30T08:28:03.557Z,25.00
2019-01-30T08:30:33.295Z,33.27
2019-01-30T08:33:05.659Z,22.87
2019-01-30T08:35:35.034Z,23.67
2019-01-30T08:38:05.746Z,25.70
2019-01-30T08:40:35.015Z,23.20
2019-01-30T08:43:04.635Z,26.97
2019-01-30T08:45:34.064Z,21.40
2019-01-30T08:48:04.879Z,21.00
2019-01-30T08:50:34.562Z,21.30
2019-01-30T08:53:03.891Z,23.60
2019-01-30T08:55:33.292Z,22.90
2019-01-30T08:58:02.694Z,22.57
2019-01-30T09:00:32.562Z,23.90
2019-01-30T09:03:01.914Z,28.03
2019-01-30T09:05:31.227Z,29.07
2019-01-30T09:08:00.553Z,27.10
2019-01-30T09:10:30.042Z,22.73
2019-01-30T09:12:59.364Z,22.57
2019-01-30T09:15:29.392Z,19.73
2019-01-30T09:17:58.765Z,18.77
2019-01-30T09:20:28.288Z,22.60
2019-01-30T09:22:57.555Z,23.63
2019-01-30T09:25:28.591Z,23.10
2019-01-30T09:28:01.908Z,24.77
2019-01-30T09:30:36.608Z,19.83
2019-01-30T09:33:08.181Z,25.70
2019-01-30T09:35:37.595Z,20.30
2019-01-30T09:38:07.108Z,17.47
2019-01-30T09:40:36.407Z,18.50
2019-01-30T09:43:05.986Z,21.13
2019-01-30T09:45:35.428Z,18.67
2019-01-30T09:48:05.090Z,20.07
2019-01-30T09:50:34.521Z,19.90
2019-01-30T09:53:05.725Z,20.47
2019-01-30T09:55:35.061Z,19.20
2019-01-30T09:58:04.360Z,22.30
2019-01-30T10:00:35.543Z,20.87
2019-01-30T10:03:05.077Z,17.93
2019-01-30T10:05:34.373Z,21.50
2019-01-30T10:08:03.683Z,20.53
2019-01-30T10:10:34.818Z,18.50
2019-01-30T10:13:04.698Z,20.93
2019-01-30T10:15:37.746Z,16.63
2019-01-30T10:18:07.734Z,22.00
2019-01-30T10:20:37.771Z,22.50
2019-01-30T10:23:07.608Z,18.57
2019-01-30T10:25:36.995Z,20.93
2019-01-30T10:28:16.256Z,19.30
2019-01-30T10:30:40.073Z,18.10
2019-01-30T10:33:09.596Z,18.23
2019-01-30T10:35:39.436Z,18.40
2019-01-30T10:38:08.727Z,17.60
2019-01-30T10:40:38.076Z,24.10
2019-01-30T10:43:07.955Z,20.23
2019-01-30T10:45:38.283Z,21.10
2019-01-30T10:48:07.942Z,20.57
2019-01-30T10:50:37.313Z,21.23
2019-01-30T10:53:06.625Z,22.60
2019-01-30T10:55:36.530Z,17.93
2019-01-30T10:58:09.340Z,17.57
2019-01-30T11:00:41.885Z,19.43
2019-01-30T11:03:11.160Z,20.00
2019-01-30T11:05:40.645Z,26.03
2019-01-30T11:08:10.019Z,19.53
2019-01-30T11:10:39.418Z,23.30
2019-01-30T11:13:08.879Z,21.60
2019-01-30T11:15:38.400Z,26.80
2019-01-30T11:18:10.674Z,19.87
2019-01-30T11:20:40.363Z,21.60
2019-01-30T11:23:09.694Z,21.70
2019-01-30T11:25:41.216Z,22.10
2019-01-30T11:28:10.857Z,21.00
2019-01-30T11:30:40.690Z,25.90
2019-01-30T11:33:10.084Z,23.13
2019-01-30T11:35:39.544Z,19.13
2019-01-30T11:38:09.185Z,26.97
2019-01-30T11:40:38.602Z,25.30
2019-01-30T11:43:08.156Z,20.73
2019-01-30T11:45:42.336Z,19.90
2019-01-30T11:48:12.843Z,19.20
2019-01-30T11:50:43.017Z,23.53
2019-01-30T11:53:12.568Z,35.53
2019-01-30T11:55:42.276Z,25.57
2019-01-30T11:58:11.596Z,25.60
2019-01-30T12:01:03.272Z,23.50
2019-01-30T12:03:32.177Z,22.83
2019-01-30T12:06:01.559Z,25.40
2019-01-30T12:08:30.817Z,27.53
2019-01-30T12:11:00.279Z,29.70
2019-01-30T12:13:29.709Z,25.13
2019-01-30T12:15:59.059Z,25.23
2019-01-30T12:18:28.403Z,24.60
2019-01-30T12:20:57.730Z,27.93
2019-01-30T12:23:27.051Z,27.80
2019-01-30T12:25:56.359Z,28.80
2019-01-30T12:28:25.729Z,25.30
2019-01-30T12:30:55.018Z,27.70
2019-01-30T12:33:24.362Z,27.07
2019-01-30T12:35:54.639Z,32.60
2019-01-30T12:38:23.979Z,31.00
2019-01-30T12:40:53.306Z,30.87
2019-01-30T12:43:22.708Z,37.10
2019-01-30T12:45:52.019Z,46.50
2019-01-30T12:48:21.722Z,37.07
2019-01-30T12:50:51.409Z,40.87
2019-01-30T12:53:20.715Z,43.40
2019-01-30T12:55:50.123Z,42.13
2019-01-30T12:58:19.516Z,43.13
2019-01-30T13:00:49.209Z,43.00
2019-01-30T13:03:18.927Z,44.17
2019-01-30T13:05:48.639Z,41.40
2019-01-30T13:08:17.973Z,48.27
2019-01-30T13:10:47.320Z,38.37
2019-01-30T13:13:16.662Z,41.93
2019-01-30T13:15:46.346Z,44.50
2019-01-30T13:18:18.491Z,44.97
2019-01-30T13:20:49.052Z,46.93
2019-01-30T13:23:18.353Z,46.43
2019-01-30T13:25:47.597Z,54.13
2019-01-30T13:28:17.008Z,45.97
2019-01-30T13:30:46.292Z,54.93
2019-01-30T13:33:15.644Z,50.90
2019-01-30T13:35:45.072Z,51.27
2019-01-30T13:38:14.396Z,52.87
2019-01-30T13:40:46.830Z,49.17
2019-01-30T13:43:16.183Z,54.53
2019-01-30T13:45:45.498Z,59.50
2019-01-30T13:48:18.366Z,61.30
2019-01-30T13:50:48.055Z,52.87
2019-01-30T13:53:17.563Z,59.40
2019-01-30T13:55:46.899Z,60.37
2019-01-30T13:58:16.175Z,63.57
2019-01-30T14:00:45.593Z,63.63
2019-01-30T14:03:14.956Z,62.00
2019-01-30T14:05:44.400Z,62.70
2019-01-30T14:08:14.017Z,66.77
2019-01-30T14:10:43.351Z,69.37
2019-01-30T14:13:13.025Z,63.87
2019-01-30T14:15:42.474Z,58.60
2019-01-30T14:18:11.820Z,65.00
2019-01-30T14:20:41.193Z,69.10
2019-01-30T14:23:10.499Z,63.00
2019-01-30T14:25:39.838Z,64.13
2019-01-30T14:28:09.145Z,65.40
2019-01-30T14:30:40.062Z,59.83
2019-01-30T14:33:09.537Z,65.23
2019-01-30T14:35:46.451Z,56.77
2019-01-30T14:38:15.771Z,64.40
2019-01-30T14:40:45.097Z,54.60
2019-01-30T14:43:14.453Z,53.43
2019-01-30T14:45:43.774Z,48.57
2019-01-30T14:48:13.133Z,48.53
2019-01-30T14:50:42.446Z,42.03
2019-01-30T14:53:12.871Z,44.93
2019-01-30T14:55:42.221Z,38.17
2019-01-30T14:58:12.482Z,40.00
2019-01-30T15:00:41.872Z,44.13
2019-01-30T15:03:11.217Z,47.53
2019-01-30T15:05:41.018Z,41.60
2019-01-30T15:08:10.426Z,35.17
2019-01-30T15:10:40.000Z,40.43
2019-01-30T15:13:09.379Z,35.53
2019-01-30T15:15:38.752Z,35.93
2019-01-30T15:18:09.012Z,36.23
2019-01-30T15:20:39.156Z,39.40
2019-01-30T15:23:09.755Z,37.37
2019-01-30T15:25:40.580Z,40.17
2019-01-30T15:28:10.640Z,41.43
2019-01-30T15:30:47.847Z,41.40
2019-01-30T15:33:17.268Z,44.30
2019-01-30T15:35:46.602Z,44.03
2019-01-30T15:38:20.660Z,42.60
2019-01-30T15:40:48.855Z,48.70
2019-01-30T15:43:18.205Z,54.53
2019-01-30T15:45:47.516Z,42.17
2019-01-30T15:48:17.161Z,57.67
2019-01-30T15:50:46.448Z,43.17
2019-01-30T15:53:18.520Z,49.17
2019-01-30T15:55:50.255Z,33.47
2019-01-30T15:58:19.552Z,38.13
2019-01-30T16:00:58.587Z,39.47
2019-01-30T16:03:28.049Z,35.83
2019-01-30T16:05:57.444Z,28.90
2019-01-30T16:08:27.218Z,40.57
2019-01-30T16:10:56.592Z,33.53
2019-01-30T16:13:26.119Z,29.07
2019-01-30T16:16:03.939Z,34.20
2019-01-30T16:18:33.385Z,30.20
2019-01-30T16:21:02.761Z,29.03
2019-01-30T16:23:32.257Z,32.73
2019-01-30T16:26:02.003Z,32.97
2019-01-30T16:28:31.397Z,28.00
2019-01-30T16:31:04.924Z,30.30
2019-01-30T16:33:32.125Z,29.77
2019-01-30T16:36:01.432Z,29.50
2019-01-30T16:38:30.715Z,28.80
2019-01-30T16:41:00.073Z,31.37
2019-01-30T16:43:29.406Z,29.90
2019-01-30T16:45:58.904Z,27.10
2019-01-30T16:48:30.858Z,26.70
2019-01-30T16:50:59.708Z,27.37
2019-01-30T16:53:29.287Z,26.77
2019-01-30T16:55:58.578Z,27.87
2019-01-30T16:58:27.985Z,27.70
2019-01-30T17:01:00.272Z,28.00
2019-01-30T17:03:29.559Z,26.73
2019-01-30T17:06:06.938Z,30.80
2019-01-30T17:08:29.869Z,25.83
2019-01-30T17:10:59.211Z,30.30
2019-01-30T17:13:28.506Z,34.47
2019-01-30T17:15:57.861Z,30.77
2019-01-30T17:18:27.131Z,26.90
2019-01-30T17:20:56.431Z,30.60
2019-01-30T17:23:25.856Z,30.37
2019-01-30T17:25:55.146Z,25.40
2019-01-30T17:28:24.407Z,27.27
2019-01-30T17:31:01.365Z,24.90
2019-01-30T17:33:30.669Z,28.03
2019-01-30T17:35:59.988Z,30.67
2019-01-30T17:38:29.432Z,21.50
2019-01-30T17:40:58.695Z,24.80
2019-01-30T17:43:28.043Z,28.80
2019-01-30T17:45:57.497Z,28.17
2019-01-30T17:48:27.192Z,30.30
2019-01-30T17:50:56.928Z,64.93
2019-01-30T17:53:26.614Z,107.90
2019-01-30T17:55:55.963Z,55.80
2019-01-30T17:58:25.500Z,161.50
2019-01-30T18:01:00.398Z,37.20
2019-01-30T18:03:29.716Z,70.70
2019-01-30T18:05:59.413Z,26.00
2019-01-30T18:08:28.735Z,26.60
2019-01-30T18:10:58.165Z,37.90
2019-01-30T18:13:27.540Z,32.97
2019-01-30T18:15:56.939Z,30.93
2019-01-30T18:18:26.395Z,30.87
2019-01-30T18:20:55.707Z,37.93
2019-01-30T18:23:25.036Z,44.10
2019-01-30T18:25:54.660Z,31.03
2019-01-30T18:28:23.944Z,30.83
2019-01-30T18:30:53.239Z,26.07
2019-01-30T18:33:22.577Z,26.33
2019-01-30T18:35:52.835Z,29.33
2019-01-30T18:38:22.542Z,30.37
2019-01-30T18:40:51.839Z,30.53
2019-01-30T18:43:21.160Z,31.00
2019-01-30T18:45:50.489Z,23.00
2019-01-30T18:48:19.893Z,27.30
2019-01-30T18:50:49.216Z,25.97
2019-01-30T18:53:18.699Z,27.70
2019-01-30T18:55:48.093Z,21.50
2019-01-30T18:58:18.140Z,25.30
2019-01-30T19:00:48.137Z,24.60
2019-01-30T19:03:19.890Z,25.40
2019-01-30T19:05:49.888Z,22.97
2019-01-30T19:08:21.525Z,28.23
2019-01-30T19:10:50.885Z,28.73
2019-01-30T19:13:20.272Z,18.90
2019-01-30T19:15:49.641Z,22.87
2019-01-30T19:18:18.974Z,25.20
2019-01-30T19:20:49.367Z,24.40
2019-01-30T19:23:18.839Z,17.40
2019-01-30T19:25:48.153Z,21.40
2019-01-30T19:28:18.669Z,23.53
2019-01-30T19:30:47.993Z,25.00
2019-01-30T19:33:19.392Z,23.63
2019-01-30T19:35:48.756Z,22.07
2019-01-30T19:38:18.083Z,19.50
2019-01-30T19:40:48.528Z,20.30
2019-01-30T19:43:18.203Z,17.50
2019-01-30T19:45:47.488Z,23.10
2019-01-30T19:48:16.825Z,23.30
2019-01-30T19:50:46.140Z,23.47
2019-01-30T19:53:15.521Z,22.03
2019-01-30T19:55:45.185Z,18.00
2019-01-30T19:58:14.534Z,21.63
2019-01-30T20:00:46.573Z,21.43
2019-01-30T20:03:19.109Z,21.80
2019-01-30T20:05:48.428Z,21.57
2019-01-30T20:08:17.736Z,18.60
2019-01-30T20:10:47.860Z,17.87
2019-01-30T20:13:17.295Z,18.13
2019-01-30T20:15:46.587Z,19.13
2019-01-30T20:18:15.923Z,17.50
2019-01-30T20:20:45.270Z,18.53
2019-01-30T20:23:16.560Z,17.03
2019-01-30T20:25:46.387Z,20.83
2019-01-30T20:28:15.710Z,18.93
2019-01-30T20:30:45.043Z,26.57
2019-01-30T20:33:14.378Z,18.57
2019-01-30T20:35:43.763Z,24.43
2019-01-30T20:38:13.136Z,14.40
2019-01-30T20:40:42.436Z,21.10
2019-01-30T20:43:11.741Z,16.70
2019-01-30T20:45:46.705Z,14.00
2019-01-30T20:48:15.815Z,15.67
2019-01-30T20:50:45.103Z,19.90
2019-01-30T20:53:14.681Z,26.10
2019-01-30T20:55:44.107Z,15.63
2019-01-30T20:58:13.943Z,18.93
2019-01-30T21:00:43.289Z,16.40
2019-01-30T21:03:13.206Z,14.03
2019-01-30T21:05:44.863Z,16.70
2019-01-30T21:08:13.677Z,20.00
2019-01-30T21:10:43.402Z,17.07
2019-01-30T21:13:14.116Z,23.60
2019-01-30T21:15:43.409Z,15.27
2019-01-30T21:18:12.696Z,18.13
2019-01-30T21:20:41.967Z,13.23
2019-01-30T21:23:11.317Z,14.07
2019-01-30T21:25:40.744Z,13.93
2019-01-30T21:28:10.091Z,11.47
2019-01-30T21:30:39.723Z,17.90
2019-01-30T21:33:10.002Z,14.40
2019-01-30T21:35:39.362Z,17.40
2019-01-30T21:38:08.780Z,17.80
2019-01-30T21:40:38.575Z,18.77
2019-01-30T21:43:07.957Z,17.70
2019-01-30T21:45:37.303Z,12.07
2019-01-30T21:48:08.242Z,12.93
2019-01-30T21:50:37.508Z,12.90
2019-01-30T21:53:07.032Z,16.93
2019-01-30T21:55:44.263Z,13.20
2019-01-30T21:58:13.530Z,23.30
2019-01-30T22:00:42.840Z,14.27
2019-01-30T22:03:12.153Z,13.63
2019-01-30T22:05:41.525Z,12.40
2019-01-30T22:08:11.166Z,14.40
2019-01-30T22:10:40.428Z,13.27
2019-01-30T22:13:09.736Z,12.47
2019-01-30T22:15:39.009Z,16.87
2019-01-30T22:18:08.309Z,15.47
2019-01-30T22:20:37.584Z,19.20
2019-01-30T22:23:06.888Z,28.63
2019-01-30T22:25:36.252Z,20.77
2019-01-30T22:28:05.792Z,20.43
2019-01-30T22:30:35.708Z,13.17
2019-01-30T22:33:05.538Z,13.20
2019-01-30T22:35:34.945Z,13.13
2019-01-30T22:38:12.281Z,13.00
2019-01-30T22:40:36.030Z,15.70
2019-01-30T22:43:05.444Z,13.10
2019-01-30T22:45:34.716Z,11.10
2019-01-30T22:48:04.324Z,15.67
2019-01-30T22:50:33.613Z,28.07
2019-01-30T22:53:02.934Z,18.57
2019-01-30T22:55:32.509Z,15.00
2019-01-30T22:58:02.284Z,10.17
2019-01-30T23:01:11.794Z,8.90
2019-01-30T23:03:54.921Z,11.63
2019-01-30T23:06:53.507Z,18.60
2019-01-30T23:09:57.751Z,10.27
2019-01-30T23:12:41.183Z,11.27
2019-01-30T23:15:16.313Z,13.17
2019-01-30T23:18:13.353Z,9.53
2019-01-30T23:20:50.703Z,11.23
2019-01-30T23:23:57.193Z,13.73
2019-01-30T23:26:37.897Z,11.00
2019-01-30T23:29:39.376Z,15.97
2019-01-30T23:32:32.085Z,8.97
2019-01-30T23:35:48.885Z,11.93
2019-01-30T23:38:47.568Z,9.47
2019-01-30T23:41:39.876Z,6.23
2019-01-30T23:44:29.791Z,14.00
2019-01-30T23:47:20.036Z,13.40
2019-01-30T23:50:27.058Z,15.97
2019-01-30T23:53:43.474Z,8.43
2019-01-30T23:56:56.140Z,7.63
